Flight Track Log - Related Links

Times and Time Zones

All times are in EST time to prevent confusion due to time zone crossing. See the UPS1055 flight status page for this flight to view local times or setup timezone preferences in your user account.

Time Position Orientation Groundspeed Altitude Reporting Facility
EST Latitude Longitude Course Direction KTS MPH feet Rate Location/Type
Thu 11:36:37 PM 42.9579 -71.4171 31° Northeast 152 175 2,100  Level FlightAware ADS-B
Thu 11:36:57 PM 42.9716 -71.4062 30° Northeast 191 220 2,800 1,756 Climbing FlightAware ADS-B
Thu 11:37:18 PM 42.9899 -71.3935 27° Northeast 233 268 3,300 1,950 Climbing FlightAware ADS-B
Thu 11:37:37 PM 43.0115 -71.3951 357° North 248 285 4,100 3,450 Climbing FlightAware ADS-B
Thu 11:37:58 PM 43.0292 -71.4162 319° Northwest 246 283 5,600 4,429 Climbing FlightAware ADS-B
Thu 11:38:19 PM 43.0431 -71.4411 307° West 247 284 7,200 4,350 Climbing FlightAware ADS-B
Thu 11:38:38 PM 43.0569 -71.4652 308° West 244 281 8,500 3,846 Climbing FlightAware ADS-B
Thu 11:38:58 PM 43.0717 -71.4904 309° West 261 300 9,700 3,349 Climbing FlightAware ADS-B
Thu 11:39:21 PM 43.0884 -71.5220 306° West 276 318 10,900 2,462 Climbing FlightAware ADS-B
Thu 11:39:37 PM 43.0946 -71.5501 287° West 294 338 11,300 1,565 Climbing FlightAware ADS-B
Thu 11:39:44 PM 43.0948 -71.5530 275° West 299 344 11,500 1,778 Climbing FlightAware ADS-B
Thu 11:40:04 PM 43.0873 -71.5987 257° West 320 368 12,100 2,556 Climbing FlightAware ADS-B
Thu 11:40:38 PM 43.0691 -71.6677 250° West 338 389 13,800 3,370 Climbing FlightAware ADS-B
Thu 11:41:17 PM 43.0476 -71.7470 250° West 343 395 16,200 3,342 Climbing FlightAware ADS-B
Thu 11:41:57 PM 43.0268 -71.8303 251° West 352 405 18,200 2,925 Climbing FlightAware ADS-B
Thu 11:42:37 PM 43.0051 -71.9158 251° West 361 415 20,100 2,700 Climbing FlightAware ADS-B
Thu 11:43:17 PM 42.9829 -72.0028 251° West 371 427 21,800 2,519 Climbing FlightAware ADS-B
Thu 11:43:58 PM 42.9594 -72.0939 251° West 376 433 23,500 2,301 Climbing FlightAware ADS-B
Thu 11:44:30 PM 42.9412 -72.1640 251° West 389 448 24,600 2,113 Climbing FlightAware ADS-B (KSNC)
Thu 11:45:09 PM 42.9166 -72.2593 251° West 394 453 26,000 2,077 Climbing FlightAware ADS-B (KSNC)
Thu 11:45:48 PM 42.8944 -72.3450 251° West 398 458 27,300 1,644 Climbing FlightAware ADS-B (KSNC)
Thu 11:46:22 PM 42.8833 -72.3874 250° West 400 460 28,000 553 Climbing FlightAware ADS-B (KSNC)
Thu 11:47:04 PM 42.8833 -72.3874 250° West 405 466 28,000  Level FlightAware ADS-B (KSNC)
Thu 11:47:52 PM 42.8833 -72.3874 250° West 400 460 28,000  Level FlightAware ADS-B (KSNC)
Thu 11:53:44 PM 42.8833 -72.3874 250° West 407 468 28,000  Level FlightAware ADS-B (KSNC)
Thu 11:54:56 PM 42.5554 -73.6144 250° West 400 460 28,000  Level FlightAware ADS-B (KWWD)
Thu 11:56:06 PM 42.5036 -73.8022 250° West 401 461 28,000  Level Boston Center
Thu 11:57:07 PM 42.4569 -73.9381 245° Southwest 401 461 28,000  Level Boston Center
Thu 11:58:08 PM 42.4031 -74.0681 241° Southwest 400 460 28,000  Level Boston Center
Thu 11:59:06 PM 42.3497 -74.2003 241° Southwest 402 463 28,000  Level Boston Center
Fri 12:00:08 AM 42.2958 -74.3314 241° Southwest 401 461 28,000  Level Boston Center
Fri 12:01:08 AM 42.2442 -74.4600 242° Southwest 402 463 28,000  Level Boston Center
Fri 12:02:07 AM 42.1889 -74.5928 241° Southwest 405 466 28,000  Level Boston Center
Fri 12:03:08 AM 42.1356 -74.7236 241° Southwest 402 463 28,000 -1,050 Level Boston Center
Fri 12:04:07 AM 42.0808 -74.8547 241° Southwest 400 460 25,900 -1,843 Descending Boston Center
Fri 12:09:42 AM 41.6590 -75.3812 241° Southwest 357 411 15,900 -1,446 Descending FlightAware ADS-B (KWWD)
Fri 12:11:02 AM 41.5437 -75.4731 211° Southwest 362 417 15,900  Level FlightAware ADS-B (KWWD)
Fri 12:11:41 AM 41.4894 -75.5165 211° Southwest 325 374 15,900 70 Level FlightAware ADS-B (KWWD)
Fri 12:12:28 AM 41.4331 -75.5636 211° Southwest 355 409 16,000  Climbing New York Center
Fri 12:17:36 AM 40.9442 -75.5991 211° Southwest 380 437 15,900 -17 Descending FlightAware ADS-B (KWWD)
Fri 12:18:25 AM 40.8605 -75.5709 166° South 381 438 15,900 -1,024 Level FlightAware ADS-B (KWWD)
Fri 12:18:58 AM 40.8044 -75.5518 166° South 370 426 14,500 -2,447 Descending FlightAware ADS-B (KWWD)
Fri 12:19:41 AM 40.7380 -75.5293 166° South 376 433 12,800 -1,476 Descending FlightAware ADS-B (KWWD)
Fri 12:22:05 AM 40.4984 -75.4499 166° South 376 433 9,900 -1,081 Descending FlightAware ADS-B (KWWD)
Fri 12:22:22 AM 40.4720 -75.4415 166° South 331 381 9,900  Level FlightAware ADS-B (KWWD)
Fri 12:22:44 AM 40.4405 -75.4314 166° South 317 365 9,900  Level FlightAware ADS-B (KWWD)
Fri 12:23:03 AM 40.4115 -75.4218 166° South 315 362 9,900  Level FlightAware ADS-B (KWWD)
Fri 12:23:23 AM 40.3829 -75.4121 166° South 315 362 9,900  Level FlightAware ADS-B (KWWD)
Fri 12:23:44 AM 40.3545 -75.3950 155° Southeast 325 374 9,900 -146 Level FlightAware ADS-B (KWWD)
Fri 12:24:04 AM 40.3314 -75.3703 141° Southeast 314 361 9,800 -750 Descending FlightAware ADS-B (KWWD)
Fri 12:24:24 AM 40.3097 -75.3472 141° Southeast 300 345 9,400 -1,350 Descending FlightAware ADS-B (KWWD)
Fri 12:24:44 AM 40.2876 -75.3241 141° Southeast 296 341 8,900 -1,650 Descending FlightAware ADS-B (KWWD)
Fri 12:25:04 AM 40.2659 -75.3014 141° Southeast 294 338 8,300 -1,610 Descending FlightAware ADS-B (KWWD)
Fri 12:25:25 AM 40.2438 -75.2782 141° Southeast 293 337 7,800 -1,463 Descending FlightAware ADS-B (KWWD)
Fri 12:25:45 AM 40.2223 -75.2560 142° Southeast 289 333 7,300 -1,548 Descending FlightAware ADS-B (KWWD)
Fri 12:25:56 AM 40.2107 -75.2427 139° Southeast 300 345 7,000 -1,684 Descending FlightAware ADS-B (KWWD)
Fri 12:26:42 AM 40.1882 -75.1620 110° East 310 357 5,700 -1,543 Descending FlightAware ADS-B (KWWD)
Fri 12:27:06 AM 40.1796 -75.1201 105° East 304 350 5,200 -1,063 Descending FlightAware ADS-B (KWWD)
Fri 12:28:01 AM 40.1515 -75.0298 112° Southeast 280 322 4,300 -900 Descending FlightAware ADS-B (KWWD)
Fri 12:28:26 AM 40.1299 -74.9978 131° Southeast 276 318 4,000 -545 Descending FlightAware ADS-B (KWWD)
Fri 12:28:45 AM 40.1139 -74.9741 131° Southeast 274 315 3,900 -154 Descending FlightAware ADS-B (KWWD)
Fri 12:29:05 AM 40.0968 -74.9490 132° Southeast 265 305 3,900  Level FlightAware ADS-B (KWWD)
Fri 12:29:26 AM 40.0756 -74.9338 151° Southeast 254 292 3,900  Level FlightAware ADS-B (KWWD)
Fri 12:29:45 AM 40.0546 -74.9241 161° South 253 291 3,900  Level FlightAware ADS-B (KWWD)
Fri 12:30:05 AM 40.0325 -74.9139 161° South 226 260 3,900  Level FlightAware ADS-B (KWWD)
Fri 12:30:26 AM 40.0127 -74.9134 179° South 205 236 3,900  Level FlightAware ADS-B (KWWD)
Fri 12:30:45 AM 39.9990 -74.9281 219° Southwest 196 226 3,900 -158 Level FlightAware ADS-B (KWWD)
Fri 12:31:04 AM 39.9864 -74.9437 223° Southwest 194 223 3,800 -585 Descending FlightAware ADS-B (KWWD)
Fri 12:31:26 AM 39.9721 -74.9601 221° Southwest 185 213 3,500 -1,000 Descending FlightAware ADS-B (KWWD)
Fri 12:31:46 AM 39.9598 -74.9759 225° Southwest 182 209 3,100 -900 Descending FlightAware ADS-B (KWWD)
Fri 12:32:06 AM 39.9479 -74.9909 224° Southwest 177 204 2,900 -316 Descending FlightAware ADS-B (KWWD)
Fri 12:32:24 AM 39.9374 -75.0040 223° Southwest 163 188 2,900  Level FlightAware ADS-B (KWWD)
Fri 12:32:44 AM 39.9265 -75.0175 224° Southwest 158 182 2,900  Level FlightAware ADS-B (KWWD)
Fri 12:33:06 AM 39.9147 -75.0324 224° Southwest 162 186 2,900 -143 Level FlightAware ADS-B (KWWD)
Fri 12:33:26 AM 39.9055 -75.0472 231° Southwest 157 181 2,800 -462 Descending FlightAware ADS-B (KWWD)
Fri 12:33:45 AM 39.9022 -75.0641 256° West 138 159 2,600 -600 Descending FlightAware ADS-B (KWWD)
Fri 12:34:06 AM 39.8996 -75.0804 258° West 134 154 2,400 -732 Descending FlightAware ADS-B (KWWD)
Fri 12:34:26 AM 39.8966 -75.0963 256° West 135 155 2,100 -769 Descending FlightAware ADS-B (KWWD)
Fri 12:34:45 AM 39.8936 -75.1113 255° West 135 155 1,900 -600 Descending FlightAware ADS-B (KWWD)
Fri 12:35:06 AM 39.8904 -75.1265 255° West 114 131 1,700 -585 Descending FlightAware ADS-B (KWWD)
Fri 12:35:26 AM 39.8880 -75.1388 255° West 96 110 1,500 -600 Descending FlightAware ADS-B (KWWD)
Fri 12:35:46 AM 39.8859 -75.1495 256° West 91 105 1,300 -462 Descending FlightAware ADS-B (KWWD)
Fri 12:36:05 AM 39.8838 -75.1599 255° West 91 105 1,200 -514 Descending FlightAware ADS-B (KWWD)
Fri 12:36:21 AM 39.8820 -75.1688 255° West 97 112 1,000 -442 Descending FlightAware ADS-B (KWWD)
Fri 12:37:40 AM 39.8667 -75.2167 255° West 108 124 500 -380 Descending Philadelphia TRACON
Fri 12:39:00 AM 39.8667 -75.2333 247° West  Level FlightAware Approximate
Fri 12:46:00 AM 39.8722 -75.2409 247° West  Level Estimated

Login

Don't have an account? Register now (free) for customized features, flight alerts, and more!